FW2825 Weather Reports


time (UTC)temp
F
wind
direction
speed
knots
gust
knots
rain 1hr
in
rain 24hr
in
rain mn
in
humidity
%
barometer
mb
20210920041519 52 86 0.0 0.0 0.00 0.00 0.00 96 1024.8
20210920034536 53 86 0.0 0.0 0.00 0.00 0.00 95 1024.6
20210920033009 53 86 0.0 0.0 0.00 0.00 0.00 95 1024.6
20210920031545 54 86 0.0 0.0 0.00 0.00 0.00 95 1024.5
20210920030126 54 86 0.0 0.0 0.00 0.00 0.00 95 1024.3
20210920021530 55 86 0.0 0.0 0.00 0.00 0.00 94 1024.0
20210920020052 55 86 0.0 0.9 0.00 0.00 0.00 94 1023.9
20210920014557 56 86 0.0 0.0 0.00 0.00 0.00 94 1023.6
20210920013057 56 86 0.0 0.0 0.00 0.00 0.00 93 1023.5
20210920010109 57 86 0.0 0.0 0.00 0.00 0.00 92 1023.3
20210920004651 58 86 0.0 0.0 0.00 0.00 0.00 91 1023.1
20210920003053 58 86 0.0 0.0 0.00 0.00 0.00 89 1022.9
20210920001536 59 86 0.0 0.0 0.00 0.00 0.00 89 1022.7
20210920000025 60 86 0.0 2.6 0.00 0.00 0.00 89 1022.5
20210919231607 62 86 0.0 1.7 0.00 0.00 0.00 87 1021.7
20210919230046 62 86 0.0 0.9 0.00 0.00 0.00 86 1021.6
20210919224630 63 86 0.0 0.0 0.00 0.00 0.00 83 1021.5
20210919223207 64 87 0.0 0.0 0.00 0.00 0.00 78 1021.3
20210919221711 65 87 0.0 0.0 0.00 0.00 0.00 76 1021.0
20210919220043 66 86 0.0 0.0 0.00 0.00 0.00 75 1021.0
20210919214553 67 86 0.0 0.0 0.00 0.00 0.00 71 1020.8
20210919213048 68 87 0.0 0.0 0.00 0.00 0.00 68 1020.7
20210919211609 68 87 0.0 0.9 0.00 0.00 0.00 61 1020.6
20210919210043 70 86 0.0 1.7 0.00 0.00 0.00 57 1020.5
20210919204610 71 87 0.0 2.6 0.00 0.00 0.00 53 1020.4
20210919203141 71 86 0.0 3.5 0.00 0.00 0.00 51 1020.5
20210919201606 72 86 0.9 3.5 0.00 0.00 0.00 51 1020.7
20210919200116 72 92 0.0 7.8 0.00 0.00 0.00 51 1020.8
20210919194751 71 338 2.6 5.2 0.00 0.00 0.00 51 1020.8
20210919193100 72 231 0.9 5.2 0.00 0.00 0.00 49 1020.8
20210919191635 73 61 1.7 7.0 0.00 0.00 0.00 47 1020.9
20210919190040 73 9 1.7 7.8 0.00 0.00 0.00 47 1021.0
20210919184543 72 25 0.9 7.0 0.00 0.00 0.00 47 1021.1
20210919183045 72 332 1.7 7.0 0.00 0.00 0.00 47 1021.1
20210919181647 73 329 4.3 10.4 0.00 0.00 0.00 50 1021.2
20210919180036 73 114 1.7 6.1 0.00 0.00 0.00 49 1021.3
20210919174614 72 5 2.6 9.6 0.00 0.00 0.00 48 1021.4
20210919173102 72 57 2.6 7.0 0.00 0.00 0.00 52 1021.5
20210919171557 72 95 1.7 9.6 0.00 0.00 0.00 54 1021.7
20210919170125 71 42 1.7 8.7 0.00 0.00 0.00 53 1021.9
20210919164624 70 306 4.3 13.0 0.00 0.00 0.00 52 1021.9
20210919163159 70 17 5.2 13.9 0.00 0.00 0.00 52 1021.9
20210919161615 69 335 4.3 12.2 0.00 0.00 0.00 53 1021.9
20210919160242 70 13 2.6 10.4 0.00 0.00 0.00 55 1022.1
20210919154625 69 355 4.3 9.6 0.00 0.00 0.00 53 1022.1
20210919153119 69 38 3.5 12.2 0.00 0.00 0.00 57 1022.2
20210919151610 69 35 3.5 10.4 0.00 0.00 0.00 58 1022.1
20210919150100 68 351 4.3 13.0 0.00 0.00 0.00 59 1022.1
20210919144537 68 68 2.6 7.8 0.00 0.00 0.00 61 1022.1
20210919143051 67 355 0.9 7.0 0.00 0.00 0.00 65 1022.0
20210919141705 68 10 0.0 7.0 0.00 0.00 0.00 66 1021.9
20210919140019 67 317 0.0 3.5 0.00 0.00 0.00 69 1021.7
20210919134545 66 317 0.0 3.5 0.00 0.00 0.00 72 1021.7
20210919131539 62 313 0.0 0.9 0.00 0.00 0.00 83 1021.5
20210919130040 59 313 0.0 0.9 0.00 0.00 0.00 89 1021.4
20210919124539 58 313 0.0 0.9 0.00 0.00 0.00 92 1021.4
20210919123235 57 313 0.0 0.0 0.00 0.00 0.00 93 1021.5
20210919121644 56 313 0.0 0.0 0.00 0.00 0.00 95 1021.3
20210919120155 54 323 0.0 0.0 0.00 0.00 0.00 95 1021.3
20210919114630 54 323 0.0 0.0 0.00 0.00 0.00 96 1021.3
20210919113052 53 323 0.0 0.0 0.00 0.00 0.00 95 1021.0
20210919111640 52 323 0.0 0.0 0.00 0.00 0.00 95 1020.7
20210919110117 52 323 0.0 0.0 0.00 0.00 0.00 94 1020.5
20210919104558 53 323 0.0 0.0 0.00 0.00 0.00 94 1020.3
20210919103117 53 323 0.0 0.0 0.00 0.00 0.00 94 1019.8
20210919101702 54 323 0.0 0.0 0.00 0.00 0.00 93 1019.6
20210919100032 54 323 0.0 0.0 0.00 0.00 0.00 93 1019.5
20210919094546 55 323 0.0 0.0 0.00 0.00 0.00 93 1019.3
20210919093105 55 323 0.0 0.0 0.00 0.00 0.00 92 1019.2
20210919091534 56 323 0.0 0.0 0.00 0.00 0.00 91 1019.1
20210919090020 57 323 0.0 0.0 0.00 0.00 0.00 91 1018.8
20210919084534 57 323 0.0 1.7 0.00 0.00 0.00 91 1018.6
20210919083024 58 323 0.0 0.0 0.00 0.00 0.00 91 1018.7
20210919081517 59 323 0.0 0.0 0.00 0.00 0.00 91 1018.6
20210919080032 59 323 0.0 0.9 0.00 0.00 0.00 90 1018.4
20210919074529 59 323 0.9 5.2 0.00 0.00 0.00 89 1018.2
20210919073025 59 332 1.7 4.3 0.00 0.00 0.00 92 1018.2
20210919071511 59 333 1.7 5.2 0.00 0.00 0.00 93 1018.1
20210919070004 59 333 0.0 1.7 0.00 0.00 0.00 93 1018.2
20210919064501 60 333 0.0 0.0 0.00 0.00 0.00 92 1018.2
20210919063130 61 333 0.0 0.0 0.00 0.00 0.00 91 1018.1
20210919061746 62 333 0.0 0.0 0.00 0.00 0.00 89 1018.1
20210919060131 63 333 0.0 0.0 0.00 0.00 0.00 88 1017.9
20210919054658 64 333 0.0 0.9 0.00 0.00 0.00 86 1018.0
20210919053058 65 333 0.0 0.0 0.00 0.00 0.00 83 1017.9
20210919051620 66 333 0.0 0.0 0.00 0.00 0.00 81 1017.8
20210919050057 67 333 0.0 3.5 0.00 0.00 0.00 79 1017.8
20210919044638 68 333 0.0 2.6 0.00 0.00 0.00 80 1017.8
20210919043115 68 334 0.9 3.5 0.00 0.00 0.00 81 1017.8